sensor_id;sensor_type;location;lat;lon;timestamp;P1;durP1;ratioP1;P2;durP2;ratioP2
76236;SDS011;65038;53.200;6.530;2022-12-07T00:01:33;9.73;;;2.20;;
76236;SDS011;65038;53.200;6.530;2022-12-07T00:04:00;6.45;;;1.50;;
76236;SDS011;65038;53.200;6.530;2022-12-07T00:06:30;9.75;;;1.58;;
76236;SDS011;65038;53.200;6.530;2022-12-07T00:08:56;5.88;;;1.30;;
76236;SDS011;65038;53.200;6.530;2022-12-07T00:11:22;10.27;;;1.55;;
76236;SDS011;65038;53.200;6.530;2022-12-07T00:13:52;7.05;;;1.63;;
76236;SDS011;65038;53.200;6.530;2022-12-07T00:16:19;9.43;;;1.30;;
76236;SDS011;65038;53.200;6.530;2022-12-07T00:18:46;11.27;;;1.55;;
76236;SDS011;65038;53.200;6.530;2022-12-07T00:21:13;7.85;;;1.38;;
76236;SDS011;65038;53.200;6.530;2022-12-07T00:23:39;6.45;;;1.30;;
76236;SDS011;65038;53.200;6.530;2022-12-07T00:26:07;7.28;;;1.20;;
76236;SDS011;65038;53.200;6.530;2022-12-07T00:28:33;5.60;;;1.40;;
76236;SDS011;65038;53.200;6.530;2022-12-07T00:33:28;5.80;;;1.23;;
76236;SDS011;65038;53.200;6.530;2022-12-07T00:35:55;8.02;;;1.40;;
76236;SDS011;65038;53.200;6.530;2022-12-07T00:38:21;8.52;;;1.40;;
76236;SDS011;65038;53.200;6.530;2022-12-07T00:40:58;9.63;;;1.50;;
76236;SDS011;65038;53.200;6.530;2022-12-07T00:43:24;7.07;;;1.33;;
76236;SDS011;65038;53.200;6.530;2022-12-07T00:45:50;9.95;;;1.45;;
76236;SDS011;65038;53.200;6.530;2022-12-07T00:48:16;8.55;;;1.80;;
76236;SDS011;65038;53.200;6.530;2022-12-07T00:50:42;7.18;;;1.90;;
76236;SDS011;65038;53.200;6.530;2022-12-07T00:53:08;8.48;;;1.70;;
76236;SDS011;65038;53.200;6.530;2022-12-07T00:55:35;6.97;;;1.88;;
76236;SDS011;65038;53.200;6.530;2022-12-07T00:58:01;5.70;;;1.35;;
76236;SDS011;65038;53.200;6.530;2022-12-07T01:00:27;5.45;;;1.38;;
76236;SDS011;65038;53.200;6.530;2022-12-07T01:02:53;4.15;;;1.00;;
76236;SDS011;65038;53.200;6.530;2022-12-07T01:05:19;6.68;;;1.08;;
76236;SDS011;65038;53.200;6.530;2022-12-07T01:07:45;8.32;;;1.33;;
76236;SDS011;65038;53.200;6.530;2022-12-07T01:10:12;4.70;;;0.90;;
76236;SDS011;65038;53.200;6.530;2022-12-07T01:12:38;6.53;;;1.52;;
76236;SDS011;65038;53.200;6.530;2022-12-07T01:15:04;8.95;;;1.33;;
76236;SDS011;65038;53.200;6.530;2022-12-07T01:17:30;6.95;;;1.20;;
76236;SDS011;65038;53.200;6.530;2022-12-07T01:19:56;4.53;;;0.90;;
76236;SDS011;65038;53.200;6.530;2022-12-07T01:22:22;5.68;;;1.10;;
76236;SDS011;65038;53.200;6.530;2022-12-07T01:24:48;6.45;;;1.42;;
76236;SDS011;65038;53.200;6.530;2022-12-07T01:27:15;6.55;;;1.00;;
76236;SDS011;65038;53.200;6.530;2022-12-07T01:29:41;3.85;;;1.00;;
76236;SDS011;65038;53.200;6.530;2022-12-07T01:32:07;7.03;;;1.50;;
76236;SDS011;65038;53.200;6.530;2022-12-07T01:34:33;6.95;;;1.58;;
76236;SDS011;65038;53.200;6.530;2022-12-07T01:36:59;7.07;;;1.20;;
76236;SDS011;65038;53.200;6.530;2022-12-07T01:39:25;8.55;;;1.20;;
76236;SDS011;65038;53.200;6.530;2022-12-07T01:41:52;7.82;;;1.58;;
76236;SDS011;65038;53.200;6.530;2022-12-07T01:44:28;7.30;;;2.00;;
76236;SDS011;65038;53.200;6.530;2022-12-07T01:47:03;13.48;;;2.80;;
76236;SDS011;65038;53.200;6.530;2022-12-07T01:49:33;10.43;;;2.75;;
76236;SDS011;65038;53.200;6.530;2022-12-07T01:55:06;11.05;;;2.70;;
76236;SDS011;65038;53.200;6.530;2022-12-07T01:57:33;8.98;;;2.80;;
76236;SDS011;65038;53.200;6.530;2022-12-07T02:00:00;10.45;;;3.20;;
76236;SDS011;65038;53.200;6.530;2022-12-07T02:02:27;8.45;;;3.08;;
76236;SDS011;65038;53.200;6.530;2022-12-07T02:04:56;15.90;;;3.80;;
76236;SDS011;65038;53.200;6.530;2022-12-07T02:07:22;13.13;;;2.33;;
76236;SDS011;65038;53.200;6.530;2022-12-07T02:09:49;13.02;;;1.67;;
76236;SDS011;65038;53.200;6.530;2022-12-07T02:12:15;10.52;;;1.70;;
76236;SDS011;65038;53.200;6.530;2022-12-07T02:14:41;7.82;;;1.50;;
76236;SDS011;65038;53.200;6.530;2022-12-07T02:17:11;8.45;;;1.80;;
76236;SDS011;65038;53.200;6.530;2022-12-07T02:37:26;9.07;;;1.38;;
76236;SDS011;65038;53.200;6.530;2022-12-07T02:39:55;8.02;;;1.40;;
76236;SDS011;65038;53.200;6.530;2022-12-07T02:42:23;15.13;;;1.40;;
76236;SDS011;65038;53.200;6.530;2022-12-07T02:44:51;8.93;;;2.10;;
76236;SDS011;65038;53.200;6.530;2022-12-07T02:47:18;7.35;;;1.85;;
76236;SDS011;65038;53.200;6.530;2022-12-07T02:49:45;8.52;;;1.77;;
76236;SDS011;65038;53.200;6.530;2022-12-07T02:52:11;8.30;;;2.20;;
76236;SDS011;65038;53.200;6.530;2022-12-07T02:54:37;7.32;;;2.28;;
76236;SDS011;65038;53.200;6.530;2022-12-07T03:07:30;8.63;;;2.47;;
76236;SDS011;65038;53.200;6.530;2022-12-07T03:10:04;8.65;;;2.60;;
76236;SDS011;65038;53.200;6.530;2022-12-07T03:15:29;5.72;;;1.33;;
76236;SDS011;65038;53.200;6.530;2022-12-07T03:17:57;8.15;;;1.27;;
76236;SDS011;65038;53.200;6.530;2022-12-07T03:20:25;8.68;;;1.20;;
76236;SDS011;65038;53.200;6.530;2022-12-07T03:22:52;9.77;;;1.23;;
76236;SDS011;65038;53.200;6.530;2022-12-07T03:25:19;5.85;;;1.42;;
76236;SDS011;65038;53.200;6.530;2022-12-07T03:27:53;10.07;;;1.10;;
76236;SDS011;65038;53.200;6.530;2022-12-07T03:30:43;5.32;;;1.27;;
76236;SDS011;65038;53.200;6.530;2022-12-07T03:33:12;5.10;;;1.13;;
76236;SDS011;65038;53.200;6.530;2022-12-07T03:38:14;8.93;;;1.23;;
76236;SDS011;65038;53.200;6.530;2022-12-07T03:43:08;9.57;;;1.67;;
76236;SDS011;65038;53.200;6.530;2022-12-07T03:45:44;7.53;;;1.42;;
76236;SDS011;65038;53.200;6.530;2022-12-07T03:50:44;9.10;;;1.58;;
76236;SDS011;65038;53.200;6.530;2022-12-07T03:53:15;7.18;;;1.20;;
76236;SDS011;65038;53.200;6.530;2022-12-07T03:55:44;11.57;;;1.38;;
76236;SDS011;65038;53.200;6.530;2022-12-07T03:58:12;12.43;;;1.30;;
76236;SDS011;65038;53.200;6.530;2022-12-07T04:00:40;5.95;;;0.95;;
76236;SDS011;65038;53.200;6.530;2022-12-07T04:03:06;7.40;;;1.38;;
76236;SDS011;65038;53.200;6.530;2022-12-07T04:05:33;5.63;;;1.10;;
76236;SDS011;65038;53.200;6.530;2022-12-07T04:07:59;7.72;;;1.25;;
76236;SDS011;65038;53.200;6.530;2022-12-07T04:10:25;8.63;;;1.15;;
76236;SDS011;65038;53.200;6.530;2022-12-07T04:12:51;9.30;;;1.30;;
76236;SDS011;65038;53.200;6.530;2022-12-07T04:15:17;9.82;;;1.30;;
76236;SDS011;65038;53.200;6.530;2022-12-07T04:17:43;6.65;;;1.20;;
76236;SDS011;65038;53.200;6.530;2022-12-07T04:20:09;7.35;;;1.48;;
76236;SDS011;65038;53.200;6.530;2022-12-07T04:22:35;8.55;;;2.00;;
76236;SDS011;65038;53.200;6.530;2022-12-07T04:25:01;10.32;;;2.72;;
76236;SDS011;65038;53.200;6.530;2022-12-07T04:27:27;12.50;;;3.58;;
76236;SDS011;65038;53.200;6.530;2022-12-07T04:29:53;11.13;;;2.97;;
76236;SDS011;65038;53.200;6.530;2022-12-07T04:32:20;11.27;;;1.65;;
76236;SDS011;65038;53.200;6.530;2022-12-07T04:34:46;11.77;;;1.65;;
76236;SDS011;65038;53.200;6.530;2022-12-07T04:37:12;8.15;;;1.30;;
76236;SDS011;65038;53.200;6.530;2022-12-07T04:39:38;10.98;;;1.60;;
76236;SDS011;65038;53.200;6.530;2022-12-07T04:42:04;9.02;;;1.40;;
76236;SDS011;65038;53.200;6.530;2022-12-07T04:44:30;9.63;;;1.42;;
76236;SDS011;65038;53.200;6.530;2022-12-07T04:46:56;6.80;;;1.30;;
76236;SDS011;65038;53.200;6.530;2022-12-07T04:49:23;9.43;;;1.45;;
76236;SDS011;65038;53.200;6.530;2022-12-07T04:51:49;12.63;;;1.50;;
76236;SDS011;65038;53.200;6.530;2022-12-07T04:54:15;11.32;;;1.90;;
76236;SDS011;65038;53.200;6.530;2022-12-07T04:56:42;14.95;;;1.70;;
76236;SDS011;65038;53.200;6.530;2022-12-07T04:59:08;8.20;;;1.40;;
76236;SDS011;65038;53.200;6.530;2022-12-07T05:01:35;7.45;;;1.40;;
76236;SDS011;65038;53.200;6.530;2022-12-07T05:04:01;6.50;;;1.30;;
76236;SDS011;65038;53.200;6.530;2022-12-07T05:06:27;9.05;;;1.15;;
76236;SDS011;65038;53.200;6.530;2022-12-07T05:08:53;8.05;;;1.02;;
76236;SDS011;65038;53.200;6.530;2022-12-07T05:11:19;7.70;;;0.98;;
76236;SDS011;65038;53.200;6.530;2022-12-07T05:14:04;9.68;;;1.45;;
76236;SDS011;65038;53.200;6.530;2022-12-07T05:16:30;8.02;;;1.40;;
76236;SDS011;65038;53.200;6.530;2022-12-07T05:18:56;5.80;;;0.90;;
76236;SDS011;65038;53.200;6.530;2022-12-07T05:21:22;6.72;;;1.10;;
76236;SDS011;65038;53.200;6.530;2022-12-07T05:23:48;7.93;;;1.30;;
76236;SDS011;65038;53.200;6.530;2022-12-07T05:26:14;8.88;;;1.50;;
76236;SDS011;65038;53.200;6.530;2022-12-07T05:28:40;6.95;;;1.17;;
76236;SDS011;65038;53.200;6.530;2022-12-07T05:31:06;9.30;;;1.73;;
76236;SDS011;65038;53.200;6.530;2022-12-07T05:33:32;5.65;;;1.15;;
76236;SDS011;65038;53.200;6.530;2022-12-07T05:35:58;6.55;;;1.45;;
76236;SDS011;65038;53.200;6.530;2022-12-07T05:38:30;7.97;;;1.23;;
76236;SDS011;65038;53.200;6.530;2022-12-07T05:40:59;9.10;;;2.20;;
76236;SDS011;65038;53.200;6.530;2022-12-07T05:43:26;7.22;;;1.00;;
76236;SDS011;65038;53.200;6.530;2022-12-07T05:45:52;7.57;;;1.15;;
76236;SDS011;65038;53.200;6.530;2022-12-07T05:48:18;5.97;;;1.30;;
76236;SDS011;65038;53.200;6.530;2022-12-07T05:50:44;6.50;;;1.17;;
76236;SDS011;65038;53.200;6.530;2022-12-07T05:53:12;11.43;;;1.42;;
76236;SDS011;65038;53.200;6.530;2022-12-07T05:55:38;12.85;;;1.60;;
76236;SDS011;65038;53.200;6.530;2022-12-07T05:58:04;9.95;;;1.35;;
76236;SDS011;65038;53.200;6.530;2022-12-07T06:00:49;7.53;;;1.40;;
76236;SDS011;65038;53.200;6.530;2022-12-07T06:03:15;10.18;;;1.50;;
76236;SDS011;65038;53.200;6.530;2022-12-07T06:05:41;7.03;;;1.23;;
76236;SDS011;65038;53.200;6.530;2022-12-07T06:08:07;7.13;;;1.30;;
76236;SDS011;65038;53.200;6.530;2022-12-07T06:10:33;7.72;;;1.80;;
76236;SDS011;65038;53.200;6.530;2022-12-07T06:12:59;14.85;;;1.50;;
76236;SDS011;65038;53.200;6.530;2022-12-07T06:15:25;16.50;;;2.63;;
76236;SDS011;65038;53.200;6.530;2022-12-07T06:17:51;10.95;;;2.28;;
76236;SDS011;65038;53.200;6.530;2022-12-07T06:20:17;9.93;;;1.50;;
76236;SDS011;65038;53.200;6.530;2022-12-07T06:22:43;10.15;;;1.75;;
76236;SDS011;65038;53.200;6.530;2022-12-07T06:25:09;7.43;;;1.30;;
76236;SDS011;65038;53.200;6.530;2022-12-07T06:27:35;4.88;;;1.05;;
76236;SDS011;65038;53.200;6.530;2022-12-07T06:30:01;5.57;;;1.15;;
76236;SDS011;65038;53.200;6.530;2022-12-07T06:32:31;8.65;;;1.13;;
76236;SDS011;65038;53.200;6.530;2022-12-07T06:34:57;5.95;;;1.15;;
76236;SDS011;65038;53.200;6.530;2022-12-07T06:37:23;18.00;;;1.40;;
76236;SDS011;65038;53.200;6.530;2022-12-07T06:39:49;5.47;;;1.02;;
76236;SDS011;65038;53.200;6.530;2022-12-07T06:42:15;7.63;;;2.33;;
76236;SDS011;65038;53.200;6.530;2022-12-07T06:44:41;9.68;;;2.30;;
76236;SDS011;65038;53.200;6.530;2022-12-07T06:47:07;8.70;;;3.22;;
76236;SDS011;65038;53.200;6.530;2022-12-07T06:49:36;11.43;;;4.40;;
76236;SDS011;65038;53.200;6.530;2022-12-07T06:52:02;14.10;;;2.75;;
76236;SDS011;65038;53.200;6.530;2022-12-07T06:54:29;6.05;;;1.90;;
76236;SDS011;65038;53.200;6.530;2022-12-07T06:56:55;8.32;;;1.63;;
76236;SDS011;65038;53.200;6.530;2022-12-07T06:59:21;5.40;;;1.20;;
76236;SDS011;65038;53.200;6.530;2022-12-07T07:01:47;8.27;;;1.48;;
76236;SDS011;65038;53.200;6.530;2022-12-07T07:04:13;5.65;;;1.33;;
76236;SDS011;65038;53.200;6.530;2022-12-07T07:06:40;5.65;;;1.02;;
76236;SDS011;65038;53.200;6.530;2022-12-07T07:09:06;5.07;;;0.90;;
76236;SDS011;65038;53.200;6.530;2022-12-07T07:11:34;6.93;;;1.48;;
76236;SDS011;65038;53.200;6.530;2022-12-07T07:14:00;7.47;;;1.15;;
76236;SDS011;65038;53.200;6.530;2022-12-07T07:16:27;9.05;;;1.20;;
76236;SDS011;65038;53.200;6.530;2022-12-07T07:18:54;9.65;;;1.30;;
76236;SDS011;65038;53.200;6.530;2022-12-07T07:21:20;6.95;;;1.15;;
76236;SDS011;65038;53.200;6.530;2022-12-07T07:23:46;8.18;;;1.10;;
76236;SDS011;65038;53.200;6.530;2022-12-07T07:26:12;5.28;;;1.00;;
76236;SDS011;65038;53.200;6.530;2022-12-07T07:28:38;10.38;;;1.40;;
76236;SDS011;65038;53.200;6.530;2022-12-07T07:31:04;5.13;;;0.88;;
76236;SDS011;65038;53.200;6.530;2022-12-07T07:33:30;8.48;;;0.90;;
76236;SDS011;65038;53.200;6.530;2022-12-07T07:35:56;4.30;;;0.80;;
76236;SDS011;65038;53.200;6.530;2022-12-07T07:38:22;6.22;;;1.20;;
76236;SDS011;65038;53.200;6.530;2022-12-07T07:40:48;4.55;;;1.10;;
76236;SDS011;65038;53.200;6.530;2022-12-07T07:43:14;8.18;;;2.17;;
76236;SDS011;65038;53.200;6.530;2022-12-07T07:45:40;10.23;;;2.58;;
76236;SDS011;65038;53.200;6.530;2022-12-07T07:48:06;9.30;;;2.58;;
76236;SDS011;65038;53.200;6.530;2022-12-07T07:50:32;6.82;;;2.70;;
76236;SDS011;65038;53.200;6.530;2022-12-07T07:52:58;8.70;;;2.70;;
76236;SDS011;65038;53.200;6.530;2022-12-07T07:55:24;10.00;;;1.50;;
76236;SDS011;65038;53.200;6.530;2022-12-07T07:57:50;12.75;;;1.65;;
76236;SDS011;65038;53.200;6.530;2022-12-07T08:00:16;8.50;;;1.30;;
76236;SDS011;65038;53.200;6.530;2022-12-07T08:02:43;5.95;;;1.20;;
76236;SDS011;65038;53.200;6.530;2022-12-07T08:05:10;5.82;;;1.13;;
76236;SDS011;65038;53.200;6.530;2022-12-07T08:07:36;9.80;;;1.40;;
76236;SDS011;65038;53.200;6.530;2022-12-07T08:10:02;7.38;;;1.27;;
76236;SDS011;65038;53.200;6.530;2022-12-07T08:12:29;6.22;;;1.10;;
76236;SDS011;65038;53.200;6.530;2022-12-07T08:14:55;10.85;;;1.33;;
76236;SDS011;65038;53.200;6.530;2022-12-07T08:17:21;8.35;;;1.25;;
76236;SDS011;65038;53.200;6.530;2022-12-07T08:19:47;8.27;;;1.20;;
76236;SDS011;65038;53.200;6.530;2022-12-07T08:22:13;7.05;;;1.45;;
76236;SDS011;65038;53.200;6.530;2022-12-07T08:24:39;11.65;;;1.73;;
76236;SDS011;65038;53.200;6.530;2022-12-07T08:27:05;8.50;;;1.80;;
76236;SDS011;65038;53.200;6.530;2022-12-07T08:29:31;9.93;;;1.52;;
76236;SDS011;65038;53.200;6.530;2022-12-07T08:31:57;7.88;;;1.58;;
76236;SDS011;65038;53.200;6.530;2022-12-07T08:34:23;7.47;;;1.38;;
76236;SDS011;65038;53.200;6.530;2022-12-07T08:36:49;6.60;;;1.50;;
76236;SDS011;65038;53.200;6.530;2022-12-07T08:39:15;7.20;;;1.38;;
76236;SDS011;65038;53.200;6.530;2022-12-07T08:41:41;9.15;;;1.70;;
76236;SDS011;65038;53.200;6.530;2022-12-07T08:44:07;8.70;;;1.65;;
76236;SDS011;65038;53.200;6.530;2022-12-07T08:46:37;9.60;;;1.75;;
76236;SDS011;65038;53.200;6.530;2022-12-07T08:49:06;11.95;;;2.28;;
76236;SDS011;65038;53.200;6.530;2022-12-07T08:51:33;12.80;;;1.58;;
76236;SDS011;65038;53.200;6.530;2022-12-07T08:54:00;9.75;;;1.48;;
76236;SDS011;65038;53.200;6.530;2022-12-07T08:56:27;11.70;;;1.45;;
76236;SDS011;65038;53.200;6.530;2022-12-07T08:58:53;11.82;;;2.20;;
76236;SDS011;65038;53.200;6.530;2022-12-07T09:01:19;12.00;;;3.35;;
76236;SDS011;65038;53.200;6.530;2022-12-07T09:03:45;11.90;;;2.40;;
76236;SDS011;65038;53.200;6.530;2022-12-07T09:06:11;11.20;;;2.47;;
76236;SDS011;65038;53.200;6.530;2022-12-07T09:08:39;7.53;;;1.70;;
76236;SDS011;65038;53.200;6.530;2022-12-07T09:11:06;7.18;;;1.65;;
76236;SDS011;65038;53.200;6.530;2022-12-07T09:13:32;11.35;;;1.85;;
76236;SDS011;65038;53.200;6.530;2022-12-07T09:15:58;16.83;;;2.65;;
76236;SDS011;65038;53.200;6.530;2022-12-07T09:18:24;8.55;;;2.28;;
76236;SDS011;65038;53.200;6.530;2022-12-07T09:20:50;7.40;;;1.92;;
76236;SDS011;65038;53.200;6.530;2022-12-07T09:23:17;6.72;;;1.33;;
76236;SDS011;65038;53.200;6.530;2022-12-07T09:25:42;5.70;;;1.40;;
76236;SDS011;65038;53.200;6.530;2022-12-07T09:28:09;8.60;;;1.70;;
76236;SDS011;65038;53.200;6.530;2022-12-07T09:30:35;6.97;;;1.58;;
76236;SDS011;65038;53.200;6.530;2022-12-07T09:33:01;6.10;;;2.00;;
76236;SDS011;65038;53.200;6.530;2022-12-07T09:35:27;6.30;;;1.50;;
76236;SDS011;65038;53.200;6.530;2022-12-07T09:37:53;3.40;;;1.30;;
76236;SDS011;65038;53.200;6.530;2022-12-07T09:40:20;5.32;;;1.13;;
76236;SDS011;65038;53.200;6.530;2022-12-07T09:42:51;6.03;;;1.20;;
76236;SDS011;65038;53.200;6.530;2022-12-07T09:45:22;6.32;;;1.55;;
76236;SDS011;65038;53.200;6.530;2022-12-07T09:47:48;7.47;;;1.20;;
76236;SDS011;65038;53.200;6.530;2022-12-07T09:50:15;9.05;;;1.35;;
76236;SDS011;65038;53.200;6.530;2022-12-07T09:52:42;11.13;;;1.60;;
76236;SDS011;65038;53.200;6.530;2022-12-07T09:55:14;6.95;;;1.50;;
76236;SDS011;65038;53.200;6.530;2022-12-07T09:57:40;7.70;;;1.42;;
76236;SDS011;65038;53.200;6.530;2022-12-07T10:00:16;10.38;;;1.60;;
76236;SDS011;65038;53.200;6.530;2022-12-07T10:02:46;10.38;;;1.58;;
76236;SDS011;65038;53.200;6.530;2022-12-07T10:05:15;6.65;;;1.50;;
76236;SDS011;65038;53.200;6.530;2022-12-07T10:07:42;7.90;;;1.30;;
76236;SDS011;65038;53.200;6.530;2022-12-07T10:10:41;10.23;;;1.73;;
76236;SDS011;65038;53.200;6.530;2022-12-07T10:15:51;8.55;;;1.50;;
76236;SDS011;65038;53.200;6.530;2022-12-07T10:20:44;7.78;;;1.85;;
76236;SDS011;65038;53.200;6.530;2022-12-07T10:23:14;7.20;;;1.25;;
76236;SDS011;65038;53.200;6.530;2022-12-07T10:25:40;7.65;;;2.20;;
76236;SDS011;65038;53.200;6.530;2022-12-07T10:30:34;8.55;;;1.52;;
76236;SDS011;65038;53.200;6.530;2022-12-07T10:33:27;9.85;;;1.77;;
76236;SDS011;65038;53.200;6.530;2022-12-07T10:35:54;10.73;;;1.50;;
76236;SDS011;65038;53.200;6.530;2022-12-07T10:38:20;8.32;;;1.38;;
76236;SDS011;65038;53.200;6.530;2022-12-07T10:40:46;7.97;;;1.30;;
76236;SDS011;65038;53.200;6.530;2022-12-07T10:48:23;8.88;;;1.52;;
76236;SDS011;65038;53.200;6.530;2022-12-07T10:53:36;5.43;;;1.15;;
76236;SDS011;65038;53.200;6.530;2022-12-07T10:56:13;9.98;;;1.55;;
76236;SDS011;65038;53.200;6.530;2022-12-07T11:11:53;9.80;;;1.55;;
76236;SDS011;65038;53.200;6.530;2022-12-07T11:17:31;8.07;;;1.70;;
76236;SDS011;65038;53.200;6.530;2022-12-07T11:20:06;7.72;;;1.83;;
76236;SDS011;65038;53.200;6.530;2022-12-07T11:22:51;5.30;;;1.90;;
76236;SDS011;65038;53.200;6.530;2022-12-07T11:25:56;6.55;;;1.83;;
76236;SDS011;65038;53.200;6.530;2022-12-07T11:28:26;4.93;;;1.30;;
76236;SDS011;65038;53.200;6.530;2022-12-07T11:38:54;6.68;;;2.05;;
76236;SDS011;65038;53.200;6.530;2022-12-07T11:41:23;6.30;;;1.20;;
76236;SDS011;65038;53.200;6.530;2022-12-07T11:43:55;6.15;;;1.20;;
76236;SDS011;65038;53.200;6.530;2022-12-07T11:47:05;7.57;;;1.38;;
76236;SDS011;65038;53.200;6.530;2022-12-07T11:49:23;5.70;;;0.98;;
76236;SDS011;65038;53.200;6.530;2022-12-07T11:51:53;4.68;;;0.95;;
76236;SDS011;65038;53.200;6.530;2022-12-07T11:54:26;5.55;;;0.82;;
76236;SDS011;65038;53.200;6.530;2022-12-07T11:56:52;6.60;;;1.10;;
76236;SDS011;65038;53.200;6.530;2022-12-07T11:59:31;6.85;;;1.40;;
76236;SDS011;65038;53.200;6.530;2022-12-07T12:05:12;6.07;;;1.42;;
76236;SDS011;65038;53.200;6.530;2022-12-07T12:07:39;8.68;;;1.30;;
76236;SDS011;65038;53.200;6.530;2022-12-07T12:10:13;8.10;;;1.33;;
76236;SDS011;65038;53.200;6.530;2022-12-07T12:20:37;4.65;;;1.40;;
76236;SDS011;65038;53.200;6.530;2022-12-07T12:25:42;9.45;;;2.05;;
76236;SDS011;65038;53.200;6.530;2022-12-07T12:28:22;7.30;;;1.13;;
76236;SDS011;65038;53.200;6.530;2022-12-07T12:31:04;7.22;;;1.30;;
76236;SDS011;65038;53.200;6.530;2022-12-07T12:33:30;7.70;;;1.80;;
76236;SDS011;65038;53.200;6.530;2022-12-07T12:51:42;7.63;;;1.50;;
76236;SDS011;65038;53.200;6.530;2022-12-07T12:56:42;6.55;;;1.13;;
76236;SDS011;65038;53.200;6.530;2022-12-07T12:59:29;5.60;;;1.10;;
76236;SDS011;65038;53.200;6.530;2022-12-07T13:01:58;5.65;;;0.90;;
76236;SDS011;65038;53.200;6.530;2022-12-07T13:04:40;6.80;;;1.00;;
76236;SDS011;65038;53.200;6.530;2022-12-07T13:10:00;4.18;;;0.82;;
76236;SDS011;65038;53.200;6.530;2022-12-07T13:12:27;5.40;;;1.08;;
76236;SDS011;65038;53.200;6.530;2022-12-07T13:14:57;5.03;;;1.00;;
76236;SDS011;65038;53.200;6.530;2022-12-07T13:19:59;7.53;;;1.20;;
76236;SDS011;65038;53.200;6.530;2022-12-07T13:24:56;5.25;;;1.25;;
76236;SDS011;65038;53.200;6.530;2022-12-07T13:27:24;4.82;;;0.93;;
76236;SDS011;65038;53.200;6.530;2022-12-07T13:29:50;3.65;;;0.80;;
76236;SDS011;65038;53.200;6.530;2022-12-07T13:32:28;6.68;;;1.10;;
76236;SDS011;65038;53.200;6.530;2022-12-07T13:34:54;3.67;;;0.90;;
76236;SDS011;65038;53.200;6.530;2022-12-07T13:37:27;3.70;;;0.82;;
76236;SDS011;65038;53.200;6.530;2022-12-07T13:39:57;6.82;;;1.00;;
76236;SDS011;65038;53.200;6.530;2022-12-07T13:42:28;6.45;;;1.20;;
76236;SDS011;65038;53.200;6.530;2022-12-07T13:44:55;6.13;;;1.10;;
76236;SDS011;65038;53.200;6.530;2022-12-07T13:49:54;2.55;;;0.55;;
76236;SDS011;65038;53.200;6.530;2022-12-07T13:54:47;4.63;;;0.90;;
76236;SDS011;65038;53.200;6.530;2022-12-07T13:57:14;5.03;;;1.30;;
76236;SDS011;65038;53.200;6.530;2022-12-07T13:59:40;5.80;;;1.45;;
76236;SDS011;65038;53.200;6.530;2022-12-07T14:02:20;4.47;;;1.20;;
76236;SDS011;65038;53.200;6.530;2022-12-07T14:04:47;5.57;;;1.27;;
76236;SDS011;65038;53.200;6.530;2022-12-07T14:07:29;6.30;;;1.30;;
76236;SDS011;65038;53.200;6.530;2022-12-07T14:09:59;5.93;;;1.00;;
76236;SDS011;65038;53.200;6.530;2022-12-07T14:12:25;5.45;;;1.20;;
76236;SDS011;65038;53.200;6.530;2022-12-07T14:14:52;5.95;;;1.10;;
76236;SDS011;65038;53.200;6.530;2022-12-07T14:17:19;6.63;;;1.20;;
76236;SDS011;65038;53.200;6.530;2022-12-07T14:24:46;5.70;;;1.20;;
76236;SDS011;65038;53.200;6.530;2022-12-07T14:27:19;7.30;;;1.30;;
76236;SDS011;65038;53.200;6.530;2022-12-07T14:29:45;5.47;;;1.20;;
76236;SDS011;65038;53.200;6.530;2022-12-07T14:32:17;4.47;;;1.30;;
76236;SDS011;65038;53.200;6.530;2022-12-07T14:34:54;5.43;;;1.15;;
76236;SDS011;65038;53.200;6.530;2022-12-07T14:37:20;6.15;;;1.30;;
76236;SDS011;65038;53.200;6.530;2022-12-07T14:39:46;4.88;;;1.10;;
76236;SDS011;65038;53.200;6.530;2022-12-07T14:42:12;5.18;;;1.00;;
76236;SDS011;65038;53.200;6.530;2022-12-07T14:44:39;3.10;;;1.00;;
76236;SDS011;65038;53.200;6.530;2022-12-07T14:47:05;4.53;;;1.00;;
76236;SDS011;65038;53.200;6.530;2022-12-07T14:49:31;5.75;;;1.30;;
76236;SDS011;65038;53.200;6.530;2022-12-07T14:51:57;6.93;;;1.40;;
76236;SDS011;65038;53.200;6.530;2022-12-07T14:54:24;6.50;;;1.33;;
76236;SDS011;65038;53.200;6.530;2022-12-07T14:56:53;5.93;;;1.48;;
76236;SDS011;65038;53.200;6.530;2022-12-07T14:59:19;5.05;;;1.10;;
76236;SDS011;65038;53.200;6.530;2022-12-07T15:01:45;6.03;;;1.40;;
76236;SDS011;65038;53.200;6.530;2022-12-07T15:04:11;5.32;;;1.40;;
76236;SDS011;65038;53.200;6.530;2022-12-07T15:06:37;6.22;;;1.20;;
76236;SDS011;65038;53.200;6.530;2022-12-07T15:09:03;7.65;;;1.13;;
76236;SDS011;65038;53.200;6.530;2022-12-07T15:11:29;8.07;;;1.40;;
76236;SDS011;65038;53.200;6.530;2022-12-07T15:13:55;6.57;;;1.48;;
76236;SDS011;65038;53.200;6.530;2022-12-07T15:16:34;5.20;;;1.10;;
76236;SDS011;65038;53.200;6.530;2022-12-07T15:19:00;9.70;;;1.38;;
76236;SDS011;65038;53.200;6.530;2022-12-07T15:21:26;7.10;;;1.20;;
76236;SDS011;65038;53.200;6.530;2022-12-07T15:23:52;6.15;;;1.13;;
76236;SDS011;65038;53.200;6.530;2022-12-07T15:26:19;5.65;;;1.20;;
76236;SDS011;65038;53.200;6.530;2022-12-07T15:28:45;5.30;;;1.40;;
76236;SDS011;65038;53.200;6.530;2022-12-07T15:31:11;4.97;;;1.15;;
76236;SDS011;65038;53.200;6.530;2022-12-07T15:33:37;7.47;;;1.60;;
76236;SDS011;65038;53.200;6.530;2022-12-07T15:36:03;4.72;;;1.05;;
76236;SDS011;65038;53.200;6.530;2022-12-07T15:38:29;6.32;;;0.98;;
76236;SDS011;65038;53.200;6.530;2022-12-07T15:40:55;4.63;;;1.17;;
76236;SDS011;65038;53.200;6.530;2022-12-07T15:43:21;5.95;;;1.70;;
76236;SDS011;65038;53.200;6.530;2022-12-07T15:46:06;7.03;;;1.90;;
76236;SDS011;65038;53.200;6.530;2022-12-07T15:48:32;3.90;;;1.52;;
76236;SDS011;65038;53.200;6.530;2022-12-07T15:51:05;5.28;;;1.70;;
76236;SDS011;65038;53.200;6.530;2022-12-07T15:53:32;4.68;;;1.65;;
76236;SDS011;65038;53.200;6.530;2022-12-07T15:55:58;5.95;;;2.10;;
76236;SDS011;65038;53.200;6.530;2022-12-07T15:58:24;5.65;;;1.75;;
76236;SDS011;65038;53.200;6.530;2022-12-07T16:00:50;5.43;;;1.50;;
76236;SDS011;65038;53.200;6.530;2022-12-07T16:03:16;5.82;;;2.20;;
76236;SDS011;65038;53.200;6.530;2022-12-07T16:05:50;5.20;;;1.73;;
76236;SDS011;65038;53.200;6.530;2022-12-07T16:08:16;7.95;;;1.70;;
76236;SDS011;65038;53.200;6.530;2022-12-07T16:10:42;7.43;;;1.77;;
76236;SDS011;65038;53.200;6.530;2022-12-07T16:13:11;6.30;;;1.80;;
76236;SDS011;65038;53.200;6.530;2022-12-07T16:15:42;7.30;;;3.25;;
76236;SDS011;65038;53.200;6.530;2022-12-07T16:18:09;6.95;;;1.55;;
76236;SDS011;65038;53.200;6.530;2022-12-07T16:20:35;6.22;;;1.48;;
76236;SDS011;65038;53.200;6.530;2022-12-07T16:23:01;6.70;;;1.50;;
76236;SDS011;65038;53.200;6.530;2022-12-07T16:25:27;3.35;;;1.02;;
76236;SDS011;65038;53.200;6.530;2022-12-07T16:27:53;8.27;;;1.48;;
76236;SDS011;65038;53.200;6.530;2022-12-07T16:30:19;6.47;;;1.17;;
76236;SDS011;65038;53.200;6.530;2022-12-07T16:32:45;6.20;;;1.50;;
76236;SDS011;65038;53.200;6.530;2022-12-07T16:35:12;4.45;;;0.95;;
76236;SDS011;65038;53.200;6.530;2022-12-07T16:37:38;4.43;;;1.20;;
76236;SDS011;65038;53.200;6.530;2022-12-07T16:40:04;5.60;;;0.98;;
76236;SDS011;65038;53.200;6.530;2022-12-07T16:42:34;4.55;;;1.20;;
76236;SDS011;65038;53.200;6.530;2022-12-07T16:45:00;5.97;;;1.10;;
76236;SDS011;65038;53.200;6.530;2022-12-07T16:47:26;4.63;;;1.40;;
76236;SDS011;65038;53.200;6.530;2022-12-07T16:49:53;6.32;;;1.23;;
76236;SDS011;65038;53.200;6.530;2022-12-07T16:52:19;5.38;;;1.40;;
76236;SDS011;65038;53.200;6.530;2022-12-07T16:54:45;7.70;;;1.27;;
76236;SDS011;65038;53.200;6.530;2022-12-07T16:57:11;4.60;;;1.20;;
76236;SDS011;65038;53.200;6.530;2022-12-07T16:59:37;5.28;;;1.10;;
76236;SDS011;65038;53.200;6.530;2022-12-07T17:02:04;4.38;;;1.00;;
76236;SDS011;65038;53.200;6.530;2022-12-07T17:04:32;3.53;;;0.90;;